createdAt,value
2019-03-26T00:02:04.006Z,45.27
2019-03-26T00:04:31.615Z,45.25
2019-03-26T00:06:59.214Z,45.30
2019-03-26T00:09:26.827Z,45.28
2019-03-26T00:11:54.456Z,45.25
2019-03-26T00:14:22.072Z,45.25
2019-03-26T00:16:49.690Z,45.09
2019-03-26T00:19:17.302Z,45.13
2019-03-26T00:21:44.945Z,45.15
2019-03-26T00:24:12.511Z,45.19
2019-03-26T00:26:40.126Z,45.23
2019-03-26T00:29:07.760Z,45.25
2019-03-26T00:31:35.374Z,45.19
2019-03-26T00:34:02.987Z,45.13
2019-03-26T00:36:30.594Z,45.19
2019-03-26T00:38:58.196Z,45.24
2019-03-26T00:41:25.790Z,45.30
2019-03-26T00:43:53.392Z,45.35
2019-03-26T00:46:20.995Z,45.44
2019-03-26T00:48:49.730Z,45.47
2019-03-26T00:51:17.326Z,45.51
2019-03-26T00:53:44.938Z,45.57
2019-03-26T00:56:12.536Z,45.60
2019-03-26T00:58:40.135Z,45.61
2019-03-26T01:01:07.763Z,45.49
2019-03-26T01:03:41.461Z,45.56
2019-03-26T01:06:09.055Z,45.50
2019-03-26T01:08:36.747Z,45.45
2019-03-26T01:11:05.861Z,45.41
2019-03-26T01:13:33.524Z,45.19
2019-03-26T01:16:01.079Z,45.19
2019-03-26T01:18:28.693Z,45.08
2019-03-26T01:20:56.298Z,45.15
2019-03-26T01:23:23.918Z,45.15
2019-03-26T01:25:51.554Z,45.03
2019-03-26T01:28:29.967Z,45.00
2019-03-26T01:30:57.612Z,44.86
2019-03-26T01:33:25.222Z,44.84
2019-03-26T01:35:52.814Z,44.70
2019-03-26T01:38:20.423Z,44.52
2019-03-26T01:40:58.370Z,44.52
2019-03-26T01:43:25.998Z,44.58
2019-03-26T01:45:53.592Z,44.63
2019-03-26T01:48:21.190Z,44.72
2019-03-26T01:50:49.052Z,44.84
2019-03-26T01:53:16.683Z,44.79
2019-03-26T01:55:53.011Z,44.72
2019-03-26T01:58:20.625Z,44.81
2019-03-26T02:00:48.239Z,44.96
2019-03-26T02:03:16.467Z,45.13
2019-03-26T02:05:54.534Z,44.75
2019-03-26T02:08:31.198Z,44.97
2019-03-26T02:10:58.801Z,44.68
2019-03-26T02:13:26.409Z,44.75
2019-03-26T02:15:54.024Z,44.76
2019-03-26T02:18:35.851Z,44.64
2019-03-26T02:21:03.971Z,44.72
2019-03-26T02:23:31.577Z,44.79
2019-03-26T02:25:59.173Z,44.81
2019-03-26T02:28:26.790Z,44.88
2019-03-26T02:30:54.390Z,44.65
2019-03-26T02:33:22.020Z,44.81
2019-03-26T02:35:49.633Z,44.94
2019-03-26T02:38:24.837Z,45.00
2019-03-26T02:40:52.447Z,45.04
2019-03-26T02:43:20.046Z,45.19
2019-03-26T02:45:47.660Z,45.33
2019-03-26T02:48:15.248Z,45.36
2019-03-26T02:50:42.866Z,45.49
2019-03-26T02:53:10.462Z,45.67
2019-03-26T02:55:38.332Z,45.75
2019-03-26T02:58:05.935Z,45.90
2019-03-26T03:00:33.543Z,45.94
2019-03-26T03:03:01.163Z,46.02
2019-03-26T03:05:35.626Z,46.09
2019-03-26T03:07:58.278Z,46.17
2019-03-26T03:10:25.886Z,46.20
2019-03-26T03:12:53.497Z,46.29
2019-03-26T03:15:21.088Z,46.39
2019-03-26T03:17:48.689Z,46.44
2019-03-26T03:20:16.315Z,46.53
2019-03-26T03:22:43.939Z,46.55
2019-03-26T03:25:11.757Z,46.56
2019-03-26T03:27:39.436Z,46.61
2019-03-26T03:30:07.483Z,46.69
2019-03-26T03:32:35.069Z,46.73
2019-03-26T03:35:02.792Z,46.75
2019-03-26T03:37:30.495Z,46.77
2019-03-26T03:39:58.160Z,46.79
2019-03-26T03:42:25.717Z,46.80
2019-03-26T03:44:53.350Z,46.74
2019-03-26T03:47:23.054Z,46.67
2019-03-26T03:49:50.986Z,46.60
2019-03-26T03:52:20.907Z,46.38
2019-03-26T03:54:49.806Z,46.39
2019-03-26T03:57:17.471Z,46.33
2019-03-26T03:59:45.540Z,46.25
2019-03-26T04:02:13.225Z,46.20
2019-03-26T04:04:51.608Z,46.06
2019-03-26T04:07:19.269Z,46.11
2019-03-26T04:09:46.874Z,46.05
2019-03-26T04:12:14.487Z,45.39
2019-03-26T04:14:49.576Z,45.52
2019-03-26T04:17:17.220Z,45.58
2019-03-26T04:19:53.808Z,45.60
2019-03-26T04:22:21.461Z,45.51
2019-03-26T04:24:49.089Z,45.49
2019-03-26T04:27:18.497Z,45.47
2019-03-26T04:29:46.347Z,45.23
2019-03-26T04:32:14.427Z,45.15
2019-03-26T04:34:42.037Z,44.68
2019-03-26T04:37:09.653Z,44.55
2019-03-26T04:39:37.257Z,44.56
2019-03-26T04:42:05.025Z,44.22
2019-03-26T04:44:32.781Z,44.27
2019-03-26T04:47:00.388Z,44.45
2019-03-26T04:49:27.981Z,44.59
2019-03-26T04:51:55.609Z,44.75
2019-03-26T04:54:23.222Z,44.83
2019-03-26T04:56:50.950Z,44.78
2019-03-26T04:59:18.565Z,44.69
2019-03-26T05:01:46.180Z,44.80
2019-03-26T05:04:13.921Z,44.83
2019-03-26T05:06:41.531Z,44.99
2019-03-26T05:09:09.171Z,44.59
2019-03-26T05:11:36.787Z,44.60
2019-03-26T05:14:04.410Z,44.49
2019-03-26T05:16:32.024Z,44.51
2019-03-26T05:18:59.629Z,44.72
2019-03-26T05:21:27.248Z,44.66
2019-03-26T05:23:54.852Z,44.09
2019-03-26T05:26:22.499Z,44.36
2019-03-26T05:28:50.121Z,44.52
2019-03-26T05:31:17.736Z,43.73
2019-03-26T05:33:45.346Z,43.98
2019-03-26T05:36:12.966Z,44.34
2019-03-26T05:38:40.578Z,44.35
2019-03-26T05:41:10.603Z,44.54
2019-03-26T05:43:38.384Z,44.61
2019-03-26T05:46:06.001Z,44.63
2019-03-26T05:48:33.598Z,43.89
2019-03-26T05:51:01.276Z,43.79
2019-03-26T05:53:28.910Z,44.08
2019-03-26T05:55:56.510Z,44.49
2019-03-26T05:58:24.121Z,44.73
2019-03-26T06:00:51.781Z,44.74
2019-03-26T06:03:21.202Z,44.91
2019-03-26T06:05:48.890Z,44.96
2019-03-26T06:08:16.515Z,45.09
2019-03-26T06:10:44.151Z,45.06
2019-03-26T06:13:11.788Z,45.27
2019-03-26T06:15:46.957Z,45.34
2019-03-26T06:18:14.573Z,45.44
2019-03-26T06:20:43.443Z,45.55
2019-03-26T06:23:11.066Z,45.66
2019-03-26T06:25:48.066Z,45.71
2019-03-26T06:28:15.701Z,45.88
2019-03-26T06:30:43.347Z,45.99
2019-03-26T06:33:11.002Z,46.13
2019-03-26T06:35:38.614Z,46.39
2019-03-26T06:38:06.242Z,46.53
2019-03-26T06:40:33.881Z,46.63
2019-03-26T06:43:01.484Z,46.88
2019-03-26T06:45:29.082Z,47.06
2019-03-26T06:48:04.307Z,47.71
2019-03-26T06:50:32.023Z,47.88
2019-03-26T06:53:01.434Z,48.14
2019-03-26T06:55:30.831Z,48.66
2019-03-26T06:57:58.440Z,49.12
2019-03-26T07:00:29.870Z,49.31
2019-03-26T07:02:58.903Z,49.69
2019-03-26T07:05:26.533Z,50.26
2019-03-26T07:07:54.179Z,50.11
2019-03-26T07:10:25.950Z,51.20
2019-03-26T07:12:53.566Z,51.58
2019-03-26T07:15:21.181Z,51.33
2019-03-26T07:17:48.787Z,52.15
2019-03-26T07:20:16.430Z,52.84
2019-03-26T07:22:44.040Z,54.85
2019-03-26T07:25:11.855Z,54.52
2019-03-26T07:27:39.445Z,55.20
2019-03-26T07:30:08.012Z,55.64
2019-03-26T07:32:35.616Z,55.60
2019-03-26T07:35:03.490Z,55.42
2019-03-26T07:37:44.124Z,55.47
2019-03-26T07:40:00.608Z,55.68
2019-03-26T07:42:28.214Z,55.59
2019-03-26T07:45:05.559Z,55.78
2019-03-26T07:47:33.160Z,57.41
2019-03-26T07:50:00.763Z,56.94
2019-03-26T07:52:28.376Z,57.01
2019-03-26T07:54:55.965Z,57.26
2019-03-26T07:57:23.565Z,57.00
2019-03-26T07:59:56.024Z,57.13
2019-03-26T08:02:23.637Z,56.96
2019-03-26T08:04:57.910Z,57.12
2019-03-26T08:07:25.529Z,57.63
2019-03-26T08:09:53.131Z,58.47
2019-03-26T08:12:20.740Z,57.34
2019-03-26T08:14:48.359Z,57.04
2019-03-26T08:17:15.965Z,56.59
2019-03-26T08:19:53.531Z,58.27
2019-03-26T08:22:21.139Z,57.55
2019-03-26T08:24:48.752Z,54.36
2019-03-26T08:27:16.365Z,51.83
2019-03-26T08:29:43.975Z,51.40
2019-03-26T08:32:11.644Z,51.06
2019-03-26T08:34:39.250Z,51.09
2019-03-26T08:37:06.852Z,51.09
2019-03-26T08:39:34.472Z,52.50
2019-03-26T08:42:04.879Z,51.37
2019-03-26T08:44:32.483Z,50.07
2019-03-26T08:47:00.106Z,48.05
2019-03-26T08:49:36.989Z,47.34
2019-03-26T08:52:11.409Z,47.51
2019-03-26T08:54:39.021Z,46.57
2019-03-26T08:57:06.646Z,46.41
2019-03-26T08:59:34.256Z,46.89
2019-03-26T09:02:03.674Z,46.60
2019-03-26T09:04:41.970Z,46.23
2019-03-26T09:07:17.144Z,45.27
2019-03-26T09:09:44.875Z,45.31
2019-03-26T09:12:12.644Z,46.02
2019-03-26T09:14:46.358Z,46.46
2019-03-26T09:17:13.969Z,46.35
2019-03-26T09:19:41.584Z,45.91
2019-03-26T09:22:10.315Z,46.02
2019-03-26T09:24:37.919Z,45.76
2019-03-26T09:27:05.528Z,46.19
2019-03-26T09:29:33.137Z,47.10
2019-03-26T09:32:00.741Z,47.82
2019-03-26T09:34:28.360Z,47.82
2019-03-26T09:36:57.774Z,47.77
2019-03-26T09:39:25.418Z,46.45
2019-03-26T09:41:53.035Z,46.57
2019-03-26T09:44:20.641Z,46.53
2019-03-26T09:46:48.261Z,46.55
2019-03-26T09:49:15.862Z,46.77
2019-03-26T09:51:43.475Z,46.83
2019-03-26T09:54:11.085Z,47.03
2019-03-26T09:56:38.701Z,47.12
2019-03-26T09:59:06.327Z,47.43
2019-03-26T10:01:33.928Z,47.64
2019-03-26T10:04:01.528Z,47.69
2019-03-26T10:06:29.122Z,47.74
2019-03-26T10:08:56.731Z,47.82
2019-03-26T10:11:24.404Z,47.90
2019-03-26T10:13:52.016Z,47.98
2019-03-26T10:16:26.322Z,48.07
2019-03-26T10:18:53.926Z,48.04
2019-03-26T10:21:21.524Z,47.81
2019-03-26T10:23:49.165Z,48.01
2019-03-26T10:26:16.803Z,47.95
2019-03-26T10:28:54.735Z,48.24
2019-03-26T10:31:37.179Z,48.16
2019-03-26T10:34:04.789Z,48.23
2019-03-26T10:36:32.407Z,48.07
2019-03-26T10:39:05.320Z,48.02
2019-03-26T10:41:29.523Z,48.20
2019-03-26T10:43:57.138Z,48.25
2019-03-26T10:46:24.785Z,47.89
2019-03-26T10:48:52.397Z,48.16
2019-03-26T10:51:20.008Z,48.11
2019-03-26T10:53:47.611Z,48.68
2019-03-26T10:56:15.240Z,48.57
2019-03-26T10:58:42.853Z,48.30
2019-03-26T11:01:12.313Z,47.75
2019-03-26T11:03:39.958Z,48.13
2019-03-26T11:06:07.580Z,48.33
2019-03-26T11:08:35.206Z,48.18
2019-03-26T11:11:03.016Z,47.85
2019-03-26T11:13:30.627Z,47.66
2019-03-26T11:15:58.239Z,47.35
2019-03-26T11:18:25.853Z,46.57
2019-03-26T11:21:02.284Z,46.21
2019-03-26T11:23:23.003Z,46.04
2019-03-26T11:25:50.645Z,44.87
2019-03-26T11:28:18.291Z,45.58
2019-03-26T11:30:45.925Z,46.45
2019-03-26T11:33:13.638Z,46.74
2019-03-26T11:35:41.551Z,47.01
2019-03-26T11:38:09.552Z,46.17
2019-03-26T11:40:37.222Z,45.94
2019-03-26T11:43:04.985Z,45.97
2019-03-26T11:45:32.603Z,46.50
2019-03-26T11:48:00.219Z,47.66
2019-03-26T11:50:27.840Z,47.66
2019-03-26T11:52:55.478Z,47.75
2019-03-26T11:55:23.194Z,47.62
2019-03-26T11:57:50.913Z,47.26
2019-03-26T12:00:24.218Z,46.52
2019-03-26T12:02:51.825Z,46.58
2019-03-26T12:05:19.434Z,46.73
2019-03-26T12:07:47.044Z,46.96
2019-03-26T12:10:14.765Z,47.19
2019-03-26T12:12:42.415Z,47.16
2019-03-26T12:15:10.243Z,47.17
2019-03-26T12:17:37.866Z,47.04
2019-03-26T12:20:07.131Z,47.13
2019-03-26T12:22:34.747Z,47.02
2019-03-26T12:25:02.375Z,47.24
2019-03-26T12:27:29.986Z,47.26
2019-03-26T12:29:57.619Z,46.86
2019-03-26T12:32:25.260Z,46.22
2019-03-26T12:34:52.860Z,46.96
2019-03-26T12:37:20.480Z,47.37
2019-03-26T12:39:58.893Z,47.50
2019-03-26T12:42:17.663Z,47.61
2019-03-26T12:44:45.265Z,47.70
2019-03-26T12:47:12.871Z,47.92
2019-03-26T12:49:40.554Z,47.95
2019-03-26T12:52:08.167Z,48.05
2019-03-26T12:54:35.777Z,48.27
2019-03-26T12:57:03.375Z,48.28
2019-03-26T12:59:31.010Z,48.18
2019-03-26T13:01:58.642Z,48.05
2019-03-26T13:04:26.259Z,47.92
2019-03-26T13:06:53.867Z,47.88
2019-03-26T13:09:21.486Z,47.75
2019-03-26T13:11:49.088Z,47.65
2019-03-26T13:14:16.732Z,48.27
2019-03-26T13:16:44.348Z,48.38
2019-03-26T13:19:11.953Z,48.37
2019-03-26T13:21:39.561Z,48.27
2019-03-26T13:24:07.190Z,48.30
2019-03-26T13:26:34.800Z,48.41
2019-03-26T13:29:02.413Z,48.29
2019-03-26T13:31:30.047Z,48.49
2019-03-26T13:33:57.682Z,48.72
2019-03-26T13:36:25.288Z,48.93
2019-03-26T13:38:52.909Z,48.95
2019-03-26T13:41:20.524Z,48.85
2019-03-26T13:43:48.176Z,48.86
2019-03-26T13:46:15.898Z,49.10
2019-03-26T13:48:43.511Z,49.55
2019-03-26T13:51:11.147Z,49.88
2019-03-26T13:53:38.800Z,50.09
2019-03-26T13:56:06.490Z,50.32
2019-03-26T13:58:34.119Z,50.30
2019-03-26T14:01:01.739Z,50.29
2019-03-26T14:03:29.483Z,50.27
2019-03-26T14:05:57.239Z,50.28
2019-03-26T14:08:24.859Z,50.35
2019-03-26T14:10:52.470Z,50.70
2019-03-26T14:13:20.082Z,51.43
2019-03-26T14:15:47.688Z,51.83
2019-03-26T14:18:15.362Z,52.03
2019-03-26T14:20:42.960Z,52.34
2019-03-26T14:23:10.632Z,52.40
2019-03-26T14:25:38.516Z,52.18
2019-03-26T14:28:06.124Z,52.02
2019-03-26T14:30:41.734Z,51.51
2019-03-26T14:33:09.731Z,50.76
2019-03-26T14:35:37.492Z,50.54
2019-03-26T14:38:05.097Z,50.27
2019-03-26T14:40:33.962Z,49.66
2019-03-26T14:43:03.250Z,49.92
2019-03-26T14:45:30.874Z,49.87
2019-03-26T14:47:58.495Z,50.12
2019-03-26T14:50:26.120Z,50.39
2019-03-26T14:52:53.738Z,50.74
2019-03-26T14:55:21.385Z,51.14
2019-03-26T14:57:49.027Z,51.30
2019-03-26T15:00:16.970Z,51.48
2019-03-26T15:02:44.588Z,51.54
2019-03-26T15:05:12.507Z,51.80
2019-03-26T15:07:40.123Z,51.73
2019-03-26T15:10:07.992Z,51.24
2019-03-26T15:12:35.614Z,50.87
2019-03-26T15:15:04.922Z,50.80
2019-03-26T15:17:32.519Z,50.93
2019-03-26T15:20:00.372Z,50.86
2019-03-26T15:22:28.099Z,51.00
2019-03-26T15:24:55.702Z,50.93
2019-03-26T15:27:23.315Z,51.20
2019-03-26T15:29:50.923Z,51.23
2019-03-26T15:32:18.538Z,51.00
2019-03-26T15:34:46.160Z,51.04
2019-03-26T15:37:13.780Z,51.00
2019-03-26T15:39:41.424Z,50.83
2019-03-26T15:42:09.068Z,50.74
2019-03-26T15:44:36.681Z,50.10
2019-03-26T15:47:04.291Z,48.25
2019-03-26T15:49:31.906Z,48.56
2019-03-26T15:51:59.520Z,48.86
2019-03-26T15:54:27.141Z,48.92
2019-03-26T15:56:54.796Z,49.03
2019-03-26T15:59:22.405Z,48.27
2019-03-26T16:01:50.013Z,48.28
2019-03-26T16:04:17.638Z,48.86
2019-03-26T16:06:45.235Z,48.87
2019-03-26T16:09:12.848Z,49.31
2019-03-26T16:11:40.471Z,49.50
2019-03-26T16:14:08.088Z,49.75
2019-03-26T16:16:35.711Z,50.03
2019-03-26T16:19:03.324Z,50.21
2019-03-26T16:21:30.982Z,50.25
2019-03-26T16:23:58.734Z,50.22
2019-03-26T16:26:27.604Z,50.45
2019-03-26T16:28:55.288Z,50.82
2019-03-26T16:31:22.938Z,51.12
2019-03-26T16:33:51.616Z,51.26
2019-03-26T16:36:20.451Z,51.45
2019-03-26T16:38:48.090Z,51.54
2019-03-26T16:41:15.710Z,51.69
2019-03-26T16:43:43.356Z,51.94
2019-03-26T16:46:10.950Z,52.02
2019-03-26T16:48:38.573Z,52.13
2019-03-26T16:51:06.228Z,52.33
2019-03-26T16:53:33.828Z,52.43
2019-03-26T16:56:01.428Z,52.66
2019-03-26T16:58:29.040Z,52.74
2019-03-26T17:00:56.651Z,52.83
2019-03-26T17:03:31.318Z,52.86
2019-03-26T17:05:53.772Z,52.90
2019-03-26T17:08:22.809Z,52.96
2019-03-26T17:10:50.633Z,52.95
2019-03-26T17:13:18.241Z,52.98
2019-03-26T17:15:45.873Z,52.97
2019-03-26T17:18:13.487Z,53.11
2019-03-26T17:20:41.086Z,53.08
2019-03-26T17:23:08.708Z,53.09
2019-03-26T17:25:36.319Z,53.11
2019-03-26T17:28:03.918Z,53.13
2019-03-26T17:30:31.517Z,53.17
2019-03-26T17:32:59.120Z,53.20
2019-03-26T17:35:26.812Z,53.23
2019-03-26T17:38:00.154Z,53.25
2019-03-26T17:40:23.955Z,53.28
2019-03-26T17:42:51.599Z,53.33
2019-03-26T17:45:19.212Z,53.31
2019-03-26T17:47:47.034Z,53.33
2019-03-26T17:50:15.533Z,53.48
2019-03-26T17:52:43.275Z,53.48
2019-03-26T17:55:11.042Z,53.83
2019-03-26T17:57:38.665Z,54.08
2019-03-26T18:00:08.162Z,54.22
2019-03-26T18:02:35.903Z,54.33
2019-03-26T18:05:04.284Z,54.29
2019-03-26T18:07:31.972Z,54.22
2019-03-26T18:09:59.621Z,54.37
2019-03-26T18:12:31.160Z,54.48
2019-03-26T18:14:56.735Z,54.55
2019-03-26T18:17:24.399Z,54.59
2019-03-26T18:19:51.999Z,54.66
2019-03-26T18:22:19.647Z,54.64
2019-03-26T18:24:47.268Z,54.63
2019-03-26T18:27:14.875Z,54.67
2019-03-26T18:29:42.526Z,54.62
2019-03-26T18:32:10.649Z,54.74
2019-03-26T18:34:38.281Z,54.81
2019-03-26T18:37:06.068Z,54.80
2019-03-26T18:39:34.656Z,54.78
2019-03-26T18:42:02.324Z,54.76
2019-03-26T18:44:31.878Z,54.84
2019-03-26T18:46:59.509Z,54.82
2019-03-26T18:49:27.190Z,54.81
2019-03-26T18:51:54.768Z,54.79
2019-03-26T18:54:22.605Z,54.75
2019-03-26T18:56:50.247Z,54.72
2019-03-26T18:59:19.032Z,54.77
2019-03-26T19:01:46.739Z,54.83
2019-03-26T19:04:14.591Z,54.98
2019-03-26T19:06:44.233Z,55.10
2019-03-26T19:09:11.950Z,55.21
2019-03-26T19:11:39.562Z,55.35
2019-03-26T19:14:07.167Z,55.47
2019-03-26T19:16:34.799Z,55.45
2019-03-26T19:19:02.425Z,55.38
2019-03-26T19:21:30.039Z,55.36
2019-03-26T19:24:04.192Z,55.35
2019-03-26T19:26:27.148Z,55.31
2019-03-26T19:28:54.755Z,55.31
2019-03-26T19:31:22.417Z,55.31
2019-03-26T19:33:50.037Z,55.29
2019-03-26T19:36:17.657Z,55.28
2019-03-26T19:38:45.716Z,55.26
2019-03-26T19:41:13.339Z,55.36
2019-03-26T19:43:40.954Z,55.47
2019-03-26T19:46:08.590Z,55.48
2019-03-26T19:48:36.204Z,55.51
2019-03-26T19:51:03.850Z,55.50
2019-03-26T19:53:31.440Z,55.49
2019-03-26T19:55:59.052Z,55.47
2019-03-26T19:58:26.691Z,55.48
2019-03-26T20:00:54.318Z,55.51
2019-03-26T20:03:21.973Z,55.54
2019-03-26T20:05:49.542Z,55.53
2019-03-26T20:08:17.159Z,55.58
2019-03-26T20:10:44.803Z,55.59
2019-03-26T20:13:23.743Z,55.75
2019-03-26T20:15:41.955Z,55.64
2019-03-26T20:18:09.574Z,55.66
2019-03-26T20:20:37.187Z,55.77
2019-03-26T20:23:06.040Z,56.13
2019-03-26T20:25:33.719Z,56.28
2019-03-26T20:28:01.343Z,56.23
2019-03-26T20:30:28.950Z,56.15
2019-03-26T20:32:56.550Z,56.08
2019-03-26T20:35:24.164Z,56.09
2019-03-26T20:37:51.765Z,56.10
2019-03-26T20:40:19.388Z,56.06
2019-03-26T20:42:46.978Z,56.08
2019-03-26T20:45:14.895Z,56.05
2019-03-26T20:47:42.584Z,56.08
2019-03-26T20:50:12.435Z,56.12
2019-03-26T20:52:40.080Z,56.17
2019-03-26T20:55:10.755Z,56.17
2019-03-26T20:57:38.435Z,56.17
2019-03-26T21:00:08.594Z,56.17
2019-03-26T21:02:36.210Z,56.15
2019-03-26T21:05:04.755Z,56.16
2019-03-26T21:07:32.362Z,56.29
2019-03-26T21:10:00.001Z,56.46
2019-03-26T21:12:27.631Z,56.56
2019-03-26T21:14:55.240Z,56.55
2019-03-26T21:17:22.852Z,56.59
2019-03-26T21:19:50.463Z,56.57
2019-03-26T21:22:18.115Z,56.55
2019-03-26T21:24:45.743Z,56.53
2019-03-26T21:27:14.457Z,56.51
2019-03-26T21:29:42.075Z,56.47
2019-03-26T21:32:09.791Z,56.49
2019-03-26T21:34:37.428Z,56.57
2019-03-26T21:37:05.107Z,56.60
2019-03-26T21:39:32.718Z,56.66
2019-03-26T21:42:01.509Z,56.69
2019-03-26T21:44:29.099Z,56.73
2019-03-26T21:46:56.736Z,56.77
2019-03-26T21:49:24.362Z,56.79
2019-03-26T21:51:51.966Z,56.77
2019-03-26T21:54:21.703Z,56.77
2019-03-26T21:56:49.369Z,56.76
2019-03-26T21:59:16.977Z,56.83
2019-03-26T22:01:44.576Z,56.83
2019-03-26T22:04:12.197Z,56.88
2019-03-26T22:06:40.951Z,57.03
2019-03-26T22:09:08.551Z,57.23
2019-03-26T22:11:48.805Z,57.49
2019-03-26T22:14:17.273Z,57.48
2019-03-26T22:16:35.228Z,57.59
2019-03-26T22:19:02.826Z,57.38
2019-03-26T22:21:31.526Z,57.18
2019-03-26T22:23:59.143Z,57.27
2019-03-26T22:26:26.754Z,57.14
2019-03-26T22:28:54.362Z,57.07
2019-03-26T22:31:21.972Z,57.07
2019-03-26T22:33:49.614Z,57.06
2019-03-26T22:36:17.235Z,57.07
2019-03-26T22:38:44.871Z,57.10
2019-03-26T22:41:12.484Z,57.08
2019-03-26T22:43:40.096Z,57.06
2019-03-26T22:46:07.706Z,57.08
2019-03-26T22:48:35.331Z,57.17
2019-03-26T22:51:03.131Z,57.37
2019-03-26T22:53:30.752Z,57.30
2019-03-26T22:55:58.416Z,57.43
2019-03-26T22:58:26.023Z,57.38
2019-03-26T23:00:54.135Z,57.38
2019-03-26T23:03:21.846Z,57.31
2019-03-26T23:05:49.476Z,57.43
2019-03-26T23:08:17.084Z,57.26
2019-03-26T23:10:44.694Z,57.21
2019-03-26T23:13:12.299Z,57.22
2019-03-26T23:15:41.202Z,57.30
2019-03-26T23:18:08.822Z,57.41
2019-03-26T23:20:36.419Z,57.32
2019-03-26T23:23:04.024Z,57.20
2019-03-26T23:25:31.636Z,57.12
2019-03-26T23:27:59.238Z,57.09
2019-03-26T23:30:26.856Z,57.11
2019-03-26T23:32:54.475Z,57.18
2019-03-26T23:35:22.076Z,57.19
2019-03-26T23:37:49.690Z,57.16
2019-03-26T23:40:17.407Z,57.20
2019-03-26T23:42:45.006Z,57.26
2019-03-26T23:45:13.015Z,57.28
2019-03-26T23:47:40.624Z,57.27
2019-03-26T23:50:08.835Z,57.20
2019-03-26T23:52:36.511Z,57.21
2019-03-26T23:55:04.951Z,57.19
2019-03-26T23:57:32.551Z,57.22
